sensor_id;sensor_type;location;lat;lon;timestamp;pressure;altitude;pressure_sealevel;temperature;humidity
54172;BME280;40076;52.354;4.970;2023-04-23T00:01:13;100775.09;;;9.64;100.00
54172;BME280;40076;52.354;4.970;2023-04-23T00:03:41;100769.72;;;9.64;100.00
54172;BME280;40076;52.354;4.970;2023-04-23T00:06:07;100767.81;;;9.64;100.00
54172;BME280;40076;52.354;4.970;2023-04-23T00:08:40;100767.31;;;9.62;100.00
54172;BME280;40076;52.354;4.970;2023-04-23T00:11:07;100761.63;;;9.64;100.00
54172;BME280;40076;52.354;4.970;2023-04-23T00:13:32;100757.63;;;9.61;100.00
54172;BME280;40076;52.354;4.970;2023-04-23T00:15:59;100753.03;;;9.62;100.00
54172;BME280;40076;52.354;4.970;2023-04-23T00:18:24;100756.53;;;9.62;100.00
54172;BME280;40076;52.354;4.970;2023-04-23T00:20:49;100749.53;;;9.61;100.00
54172;BME280;40076;52.354;4.970;2023-04-23T00:23:15;100757.63;;;9.61;100.00
54172;BME280;40076;52.354;4.970;2023-04-23T00:25:40;100750.66;;;9.60;100.00
54172;BME280;40076;52.354;4.970;2023-04-23T00:28:05;100752.56;;;9.60;100.00
54172;BME280;40076;52.354;4.970;2023-04-23T00:30:30;100752.09;;;9.58;100.00
54172;BME280;40076;52.354;4.970;2023-04-23T00:32:56;100756.69;;;9.57;100.00
54172;BME280;40076;52.354;4.970;2023-04-23T00:35:21;100748.09;;;9.55;100.00
54172;BME280;40076;52.354;4.970;2023-04-23T00:37:47;100747.31;;;9.55;100.00
54172;BME280;40076;52.354;4.970;2023-04-23T00:40:12;100747.63;;;9.53;100.00
54172;BME280;40076;52.354;4.970;2023-04-23T00:42:38;100744.16;;;9.53;100.00
54172;BME280;40076;52.354;4.970;2023-04-23T00:45:06;100735.56;;;9.51;100.00
54172;BME280;40076;52.354;4.970;2023-04-23T00:47:32;100736.97;;;9.48;100.00
54172;BME280;40076;52.354;4.970;2023-04-23T00:49:58;100732.38;;;9.49;100.00
54172;BME280;40076;52.354;4.970;2023-04-23T00:52:23;100728.88;;;9.48;100.00
54172;BME280;40076;52.354;4.970;2023-04-23T00:54:48;100730.78;;;9.48;100.00
54172;BME280;40076;52.354;4.970;2023-04-23T00:57:14;100724.94;;;9.46;100.00
54172;BME280;40076;52.354;4.970;2023-04-23T00:59:41;100722.22;;;9.46;100.00
54172;BME280;40076;52.354;4.970;2023-04-23T01:02:06;100717.94;;;9.45;100.00
54172;BME280;40076;52.354;4.970;2023-04-23T01:04:32;100720.63;;;9.45;100.00
54172;BME280;40076;52.354;4.970;2023-04-23T01:06:58;100723.34;;;9.45;100.00
54172;BME280;40076;52.354;4.970;2023-04-23T01:09:24;100719.53;;;9.46;100.00
54172;BME280;40076;52.354;4.970;2023-04-23T01:11:51;100716.03;;;9.45;100.00
54172;BME280;40076;52.354;4.970;2023-04-23T01:14:17;100714.91;;;9.46;100.00
54172;BME280;40076;52.354;4.970;2023-04-23T01:16:42;100707.63;;;9.47;100.00
54172;BME280;40076;52.354;4.970;2023-04-23T01:19:09;100716.50;;;9.47;100.00
54172;BME280;40076;52.354;4.970;2023-04-23T01:21:36;100704.13;;;9.46;100.00
54172;BME280;40076;52.354;4.970;2023-04-23T01:24:03;100696.03;;;9.46;100.00
54172;BME280;40076;52.354;4.970;2023-04-23T01:26:29;100698.41;;;9.48;100.00
54172;BME280;40076;52.354;4.970;2023-04-23T01:28:54;100693.81;;;9.48;100.00
54172;BME280;40076;52.354;4.970;2023-04-23T01:31:19;100696.22;;;9.50;100.00
54172;BME280;40076;52.354;4.970;2023-04-23T01:33:45;100687.00;;;9.51;100.00
54172;BME280;40076;52.354;4.970;2023-04-23T01:36:11;100687.50;;;9.53;100.00
54172;BME280;40076;52.354;4.970;2023-04-23T01:38:37;100681.78;;;9.54;100.00
54172;BME280;40076;52.354;4.970;2023-04-23T01:41:05;100677.97;;;9.55;100.00
54172;BME280;40076;52.354;4.970;2023-04-23T01:43:31;100680.34;;;9.57;100.00
54172;BME280;40076;52.354;4.970;2023-04-23T01:45:56;100676.06;;;9.56;100.00
54172;BME280;40076;52.354;4.970;2023-04-23T01:48:23;100680.97;;;9.54;100.00
54172;BME280;40076;52.354;4.970;2023-04-23T01:50:49;100680.97;;;9.54;100.00
54172;BME280;40076;52.354;4.970;2023-04-23T01:53:15;100679.06;;;9.54;100.00
54172;BME280;40076;52.354;4.970;2023-04-23T01:55:42;100680.22;;;9.53;100.00
54172;BME280;40076;52.354;4.970;2023-04-23T01:58:07;100674.00;;;9.53;100.00
54172;BME280;40076;52.354;4.970;2023-04-23T02:00:33;100674.00;;;9.53;100.00
54172;BME280;40076;52.354;4.970;2023-04-23T02:02:58;100663.53;;;9.51;100.00
54172;BME280;40076;52.354;4.970;2023-04-23T02:05:24;100664.63;;;9.50;100.00
54172;BME280;40076;52.354;4.970;2023-04-23T02:07:50;100667.34;;;9.50;100.00
54172;BME280;40076;52.354;4.970;2023-04-23T02:10:16;100673.03;;;9.49;100.00
54172;BME280;40076;52.354;4.970;2023-04-23T02:12:43;100671.13;;;9.49;100.00
54172;BME280;40076;52.354;4.970;2023-04-23T02:15:09;100663.03;;;9.49;100.00
54172;BME280;40076;52.354;4.970;2023-04-23T02:17:35;100660.34;;;9.49;100.00
54172;BME280;40076;52.354;4.970;2023-04-23T02:20:01;100654.97;;;9.49;100.00
54172;BME280;40076;52.354;4.970;2023-04-23T02:22:27;100656.25;;;9.52;100.00
54172;BME280;40076;52.354;4.970;2023-04-23T02:24:53;100652.75;;;9.51;100.00
54172;BME280;40076;52.354;4.970;2023-04-23T02:27:19;100655.94;;;9.53;100.00
54172;BME280;40076;52.354;4.970;2023-04-23T02:29:45;100654.00;;;9.54;100.00
54172;BME280;40076;52.354;4.970;2023-04-23T02:32:11;100651.31;;;9.54;100.00
54172;BME280;40076;52.354;4.970;2023-04-23T02:34:36;100650.53;;;9.53;100.00
54172;BME280;40076;52.354;4.970;2023-04-23T02:37:02;100652.09;;;9.54;100.00
54172;BME280;40076;52.354;4.970;2023-04-23T02:39:29;100647.50;;;9.55;100.00
54172;BME280;40076;52.354;4.970;2023-04-23T02:41:54;100651.78;;;9.56;100.00
54172;BME280;40076;52.354;4.970;2023-04-23T02:44:20;100650.69;;;9.57;100.00
54172;BME280;40076;52.354;4.970;2023-04-23T02:46:46;100646.88;;;9.58;100.00
54172;BME280;40076;52.354;4.970;2023-04-23T02:49:11;100637.19;;;9.57;100.00
54172;BME280;40076;52.354;4.970;2023-04-23T02:51:36;100641.47;;;9.58;100.00
54172;BME280;40076;52.354;4.970;2023-04-23T02:54:02;100645.28;;;9.57;100.00
54172;BME280;40076;52.354;4.970;2023-04-23T02:56:28;100646.41;;;9.56;100.00
54172;BME280;40076;52.354;4.970;2023-04-23T02:58:53;100646.41;;;9.56;100.00
54172;BME280;40076;52.354;4.970;2023-04-23T03:01:18;100646.41;;;9.56;100.00
54172;BME280;40076;52.354;4.970;2023-04-23T03:03:44;100639.41;;;9.55;100.00
54172;BME280;40076;52.354;4.970;2023-04-23T03:06:09;100641.31;;;9.54;100.00
54172;BME280;40076;52.354;4.970;2023-04-23T03:08:35;100645.91;;;9.54;100.00
54172;BME280;40076;52.354;4.970;2023-04-23T03:11:00;100650.53;;;9.53;100.00
54172;BME280;40076;52.354;4.970;2023-04-23T03:13:25;100651.31;;;9.54;100.00
54172;BME280;40076;52.354;4.970;2023-04-23T03:15:51;100645.13;;;9.53;100.00
54172;BME280;40076;52.354;4.970;2023-04-23T03:18:17;100644.34;;;9.53;100.00
54172;BME280;40076;52.354;4.970;2023-04-23T03:20:43;100637.81;;;9.54;100.00
54172;BME280;40076;52.354;4.970;2023-04-23T03:23:08;100643.22;;;9.54;100.00
54172;BME280;40076;52.354;4.970;2023-04-23T03:25:34;100645.91;;;9.54;100.00
54172;BME280;40076;52.354;4.970;2023-04-23T03:27:59;100646.41;;;9.56;100.00
54172;BME280;40076;52.354;4.970;2023-04-23T03:30:25;100632.91;;;9.56;100.00
54172;BME280;40076;52.354;4.970;2023-04-23T03:32:52;100636.72;;;9.55;100.00
54172;BME280;40076;52.354;4.970;2023-04-23T03:35:17;100644.50;;;9.56;100.00
54172;BME280;40076;52.354;4.970;2023-04-23T03:37:42;100640.19;;;9.55;100.00
54172;BME280;40076;52.354;4.970;2023-04-23T03:40:08;100628.63;;;9.55;100.00
54172;BME280;40076;52.354;4.970;2023-04-23T03:42:34;100636.41;;;9.56;100.00
54172;BME280;40076;52.354;4.970;2023-04-23T03:45:00;100630.69;;;9.58;100.00
54172;BME280;40076;52.354;4.970;2023-04-23T03:47:26;100633.69;;;9.56;100.00
54172;BME280;40076;52.354;4.970;2023-04-23T03:49:51;100636.09;;;9.58;100.00
54172;BME280;40076;52.354;4.970;2023-04-23T03:52:17;100624.19;;;9.59;100.00
54172;BME280;40076;52.354;4.970;2023-04-23T03:54:42;100630.38;;;9.59;100.00
54172;BME280;40076;52.354;4.970;2023-04-23T03:57:08;100624.19;;;9.59;100.00
54172;BME280;40076;52.354;4.970;2023-04-23T03:59:34;100618.78;;;9.59;100.00
54172;BME280;40076;52.354;4.970;2023-04-23T04:02:00;100609.25;;;9.61;100.00
54172;BME280;40076;52.354;4.970;2023-04-23T04:04:28;100611.66;;;9.63;100.00
54172;BME280;40076;52.354;4.970;2023-04-23T04:06:53;100615.94;;;9.64;100.00
54172;BME280;40076;52.354;4.970;2023-04-23T04:09:18;100610.53;;;9.64;100.00
54172;BME280;40076;52.354;4.970;2023-04-23T04:11:43;100609.44;;;9.65;100.00
54172;BME280;40076;52.354;4.970;2023-04-23T04:14:09;100614.81;;;9.65;100.00
54172;BME280;40076;52.354;4.970;2023-04-23T04:16:34;100618.00;;;9.67;100.00
54172;BME280;40076;52.354;4.970;2023-04-23T04:19:00;100611.81;;;9.66;100.00
54172;BME280;40076;52.354;4.970;2023-04-23T04:21:25;100615.00;;;9.68;100.00
54172;BME280;40076;52.354;4.970;2023-04-23T04:23:52;100621.16;;;9.69;100.00
54172;BME280;40076;52.354;4.970;2023-04-23T04:26:17;100619.25;;;9.69;100.00
54172;BME280;40076;52.354;4.970;2023-04-23T04:28:43;100614.66;;;9.70;100.00
54172;BME280;40076;52.354;4.970;2023-04-23T04:31:09;100615.44;;;9.71;100.00
54172;BME280;40076;52.354;4.970;2023-04-23T04:33:34;100621.66;;;9.71;100.00
54172;BME280;40076;52.354;4.970;2023-04-23T04:36:00;100624.81;;;9.73;100.00
54172;BME280;40076;52.354;4.970;2023-04-23T04:38:25;100622.13;;;9.73;100.00
54172;BME280;40076;52.354;4.970;2023-04-23T04:40:54;100632.59;;;9.75;100.00
54172;BME280;40076;52.354;4.970;2023-04-23T04:43:19;100622.59;;;9.75;100.00
54172;BME280;40076;52.354;4.970;2023-04-23T04:45:44;100613.41;;;9.76;100.00
54172;BME280;40076;52.354;4.970;2023-04-23T04:48:10;100614.16;;;9.77;100.00
54172;BME280;40076;52.354;4.970;2023-04-23T04:50:35;100615.75;;;9.78;100.00
54172;BME280;40076;52.354;4.970;2023-04-23T04:53:00;100614.34;;;9.80;100.00
54172;BME280;40076;52.354;4.970;2023-04-23T04:55:26;100623.22;;;9.81;100.00
54172;BME280;40076;52.354;4.970;2023-04-23T04:57:52;100620.53;;;9.81;100.00
54172;BME280;40076;52.354;4.970;2023-04-23T05:00:19;100626.72;;;9.81;100.00
54172;BME280;40076;52.354;4.970;2023-04-23T05:02:47;100622.94;;;9.82;100.00
54172;BME280;40076;52.354;4.970;2023-04-23T05:05:13;100629.91;;;9.83;100.00
54172;BME280;40076;52.354;4.970;2023-04-23T05:07:39;100621.81;;;9.83;100.00
54172;BME280;40076;52.354;4.970;2023-04-23T05:10:04;100614.50;;;9.84;100.00
54172;BME280;40076;52.354;4.970;2023-04-23T05:12:30;100619.56;;;9.85;100.00
54172;BME280;40076;52.354;4.970;2023-04-23T05:14:55;100609.88;;;9.84;100.00
54172;BME280;40076;52.354;4.970;2023-04-23T05:17:20;100620.38;;;9.86;100.00
54172;BME280;40076;52.354;4.970;2023-04-23T05:19:45;100616.56;;;9.87;100.00
54172;BME280;40076;52.354;4.970;2023-04-23T05:22:11;100606.25;;;9.89;100.00
54172;BME280;40076;52.354;4.970;2023-04-23T05:24:36;100617.03;;;9.89;100.00
54172;BME280;40076;52.354;4.970;2023-04-23T05:27:01;100614.81;;;9.91;100.00
54172;BME280;40076;52.354;4.970;2023-04-23T05:29:27;100607.97;;;9.93;100.00
54172;BME280;40076;52.354;4.970;2023-04-23T05:31:52;100606.88;;;9.94;100.00
54172;BME280;40076;52.354;4.970;2023-04-23T05:34:17;100611.94;;;9.96;100.00
54172;BME280;40076;52.354;4.970;2023-04-23T05:36:42;100618.94;;;9.97;100.00
54172;BME280;40076;52.354;4.970;2023-04-23T05:39:08;100621.31;;;9.98;100.00
54172;BME280;40076;52.354;4.970;2023-04-23T05:41:33;100628.28;;;9.99;100.00
54172;BME280;40076;52.354;4.970;2023-04-23T05:43:58;100635.28;;;10.00;100.00
54172;BME280;40076;52.354;4.970;2023-04-23T05:46:24;100628.44;;;10.03;100.00
54172;BME280;40076;52.354;4.970;2023-04-23T05:48:50;100627.34;;;10.04;100.00
54172;BME280;40076;52.354;4.970;2023-04-23T05:51:16;100625.44;;;10.04;100.00
54172;BME280;40076;52.354;4.970;2023-04-23T05:53:42;100622.44;;;10.06;100.00
54172;BME280;40076;52.354;4.970;2023-04-23T05:56:07;100624.47;;;10.09;100.00
54172;BME280;40076;52.354;4.970;2023-04-23T05:58:32;100617.97;;;10.10;100.00
54172;BME280;40076;52.354;4.970;2023-04-23T06:00:57;100623.03;;;10.12;100.00
54172;BME280;40076;52.354;4.970;2023-04-23T06:03:23;100616.38;;;10.09;100.00
54172;BME280;40076;52.354;4.970;2023-04-23T06:05:48;100612.56;;;10.10;100.00
54172;BME280;40076;52.354;4.970;2023-04-23T06:08:14;100613.66;;;10.09;100.00
54172;BME280;40076;52.354;4.970;2023-04-23T06:10:39;100602.88;;;10.09;100.00
54172;BME280;40076;52.354;4.970;2023-04-23T06:13:04;100605.56;;;10.09;100.00
54172;BME280;40076;52.354;4.970;2023-04-23T06:15:30;100605.25;;;10.11;100.00
54172;BME280;40076;52.354;4.970;2023-04-23T06:17:55;100598.44;;;10.13;100.00
54172;BME280;40076;52.354;4.970;2023-04-23T06:20:21;100600.34;;;10.13;100.00
54172;BME280;40076;52.354;4.970;2023-04-23T06:22:46;100603.50;;;10.15;100.00
54172;BME280;40076;52.354;4.970;2023-04-23T06:25:11;100603.19;;;10.16;100.00
54172;BME280;40076;52.354;4.970;2023-04-23T06:27:37;100605.28;;;10.19;100.00
54172;BME280;40076;52.354;4.970;2023-04-23T06:30:02;100605.75;;;10.21;100.00
54172;BME280;40076;52.354;4.970;2023-04-23T06:32:27;100606.69;;;10.25;100.00
54172;BME280;40076;52.354;4.970;2023-04-23T06:34:53;100605.72;;;10.30;100.00
54172;BME280;40076;52.354;4.970;2023-04-23T06:37:18;100599.66;;;10.33;100.00
54172;BME280;40076;52.354;4.970;2023-04-23T06:39:43;100597.13;;;10.36;100.00
54172;BME280;40076;52.354;4.970;2023-04-23T06:42:09;100607.59;;;10.38;100.00
54172;BME280;40076;52.354;4.970;2023-04-23T06:44:34;100603.94;;;10.42;100.00
54172;BME280;40076;52.354;4.970;2023-04-23T06:47:00;100599.47;;;10.47;100.00
54172;BME280;40076;52.354;4.970;2023-04-23T06:49:25;100594.53;;;10.49;100.00
54172;BME280;40076;52.354;4.970;2023-04-23T06:51:50;100597.53;;;10.56;100.00
54172;BME280;40076;52.354;4.970;2023-04-23T06:54:16;100599.91;;;10.57;100.00
54172;BME280;40076;52.354;4.970;2023-04-23T06:56:41;100588.47;;;10.60;100.00
54172;BME280;40076;52.354;4.970;2023-04-23T06:59:06;100590.19;;;10.65;100.00
54172;BME280;40076;52.354;4.970;2023-04-23T07:01:33;100586.50;;;10.69;100.00
54172;BME280;40076;52.354;4.970;2023-04-23T07:03:58;100583.16;;;10.72;100.00
54172;BME280;40076;52.354;4.970;2023-04-23T07:06:23;100582.16;;;10.77;100.00
54172;BME280;40076;52.354;4.970;2023-04-23T07:08:48;100579.31;;;10.82;100.00
54172;BME280;40076;52.354;4.970;2023-04-23T07:11:14;100575.94;;;10.85;100.00
54172;BME280;40076;52.354;4.970;2023-04-23T07:13:39;100572.72;;;10.92;100.00
54172;BME280;40076;52.354;4.970;2023-04-23T07:16:05;100571.41;;;10.98;100.00
54172;BME280;40076;52.354;4.970;2023-04-23T07:18:30;100577.44;;;11.03;100.00
54172;BME280;40076;52.354;4.970;2023-04-23T07:20:56;100577.22;;;11.08;100.00
54172;BME280;40076;52.354;4.970;2023-04-23T07:23:21;100576.69;;;11.15;100.00
54172;BME280;40076;52.354;4.970;2023-04-23T07:25:46;100578.88;;;11.21;100.00
54172;BME280;40076;52.354;4.970;2023-04-23T07:28:12;100572.19;;;11.28;100.00
54172;BME280;40076;52.354;4.970;2023-04-23T07:30:37;100568.94;;;11.34;100.00
54172;BME280;40076;52.354;4.970;2023-04-23T07:33:02;100574.63;;;11.41;100.00
54172;BME280;40076;52.354;4.970;2023-04-23T07:35:28;100571.69;;;11.46;100.00
54172;BME280;40076;52.354;4.970;2023-04-23T07:37:53;100564.97;;;11.52;100.00
54172;BME280;40076;52.354;4.970;2023-04-23T07:40:23;100563.97;;;11.57;100.00
54172;BME280;40076;52.354;4.970;2023-04-23T07:42:50;100563.78;;;11.62;100.00
54172;BME280;40076;52.354;4.970;2023-04-23T07:45:15;100556.59;;;11.66;100.00
54172;BME280;40076;52.354;4.970;2023-04-23T07:47:41;100569.91;;;11.71;100.00
54172;BME280;40076;52.354;4.970;2023-04-23T07:50:07;100552.69;;;11.76;100.00
54172;BME280;40076;52.354;4.970;2023-04-23T07:52:32;100553.63;;;11.80;100.00
54172;BME280;40076;52.354;4.970;2023-04-23T07:54:57;100556.91;;;11.85;100.00
54172;BME280;40076;52.354;4.970;2023-04-23T07:57:22;100559.38;;;11.90;100.00
54172;BME280;40076;52.354;4.970;2023-04-23T07:59:48;100556.50;;;11.95;100.00
54172;BME280;40076;52.354;4.970;2023-04-23T08:02:13;100554.34;;;12.01;100.00
54172;BME280;40076;52.354;4.970;2023-04-23T08:04:39;100553.81;;;12.08;100.00
54172;BME280;40076;52.354;4.970;2023-04-23T08:07:04;100559.03;;;12.13;100.00
54172;BME280;40076;52.354;4.970;2023-04-23T08:09:29;100567.25;;;12.16;100.00
54172;BME280;40076;52.354;4.970;2023-04-23T08:11:55;100563.53;;;12.21;100.00
54172;BME280;40076;52.354;4.970;2023-04-23T08:14:21;100558.69;;;12.26;100.00
54172;BME280;40076;52.354;4.970;2023-04-23T08:16:46;100557.22;;;12.29;100.00
54172;BME280;40076;52.354;4.970;2023-04-23T08:19:12;100556.69;;;12.35;100.00
54172;BME280;40076;52.354;4.970;2023-04-23T08:21:37;100549.44;;;12.40;100.00
54172;BME280;40076;52.354;4.970;2023-04-23T08:24:03;100537.59;;;12.44;100.00
54172;BME280;40076;52.354;4.970;2023-04-23T08:26:29;100530.38;;;12.48;100.00
54172;BME280;40076;52.354;4.970;2023-04-23T08:28:55;100529.81;;;12.55;100.00
54172;BME280;40076;52.354;4.970;2023-04-23T08:31:21;100527.31;;;12.62;100.00
54172;BME280;40076;52.354;4.970;2023-04-23T08:33:47;100533.31;;;12.67;100.00
54172;BME280;40076;52.354;4.970;2023-04-23T08:36:12;100532.72;;;12.74;100.00
54172;BME280;40076;52.354;4.970;2023-04-23T08:38:39;100532.53;;;12.79;100.00
54172;BME280;40076;52.354;4.970;2023-04-23T08:41:05;100533.88;;;12.85;100.00
54172;BME280;40076;52.354;4.970;2023-04-23T08:43:43;100532.03;;;12.89;100.00
54172;BME280;40076;52.354;4.970;2023-04-23T08:46:11;100532.16;;;12.93;100.00
54172;BME280;40076;52.354;4.970;2023-04-23T08:48:39;100530.78;;;12.99;100.00
54172;BME280;40076;52.354;4.970;2023-04-23T08:51:08;100533.28;;;13.04;100.00
54172;BME280;40076;52.354;4.970;2023-04-23T08:53:33;100534.63;;;13.10;100.00
54172;BME280;40076;52.354;4.970;2023-04-23T08:56:00;100536.78;;;13.17;100.00
54172;BME280;40076;52.354;4.970;2023-04-23T08:58:27;100534.28;;;13.24;100.00
54172;BME280;40076;52.354;4.970;2023-04-23T09:00:54;100530.97;;;13.30;100.00
54172;BME280;40076;52.354;4.970;2023-04-23T09:03:22;100525.28;;;13.35;100.00
54172;BME280;40076;52.354;4.970;2023-04-23T09:05:48;100535.13;;;13.40;100.00
54172;BME280;40076;52.354;4.970;2023-04-23T09:08:14;100522.44;;;13.44;100.00
54172;BME280;40076;52.354;4.970;2023-04-23T09:10:41;100533.50;;;13.51;100.00
54172;BME280;40076;52.354;4.970;2023-04-23T09:13:07;100523.53;;;13.55;100.00
54172;BME280;40076;52.354;4.970;2023-04-23T09:15:32;100525.19;;;13.60;100.00
54172;BME280;40076;52.354;4.970;2023-04-23T09:18:02;100531.97;;;13.66;100.00
54172;BME280;40076;52.354;4.970;2023-04-23T09:20:28;100524.72;;;13.70;100.00
54172;BME280;40076;52.354;4.970;2023-04-23T09:22:53;100520.16;;;13.74;100.00
54172;BME280;40076;52.354;4.970;2023-04-23T09:25:21;100518.00;;;13.79;100.00
54172;BME280;40076;52.354;4.970;2023-04-23T09:27:48;100515.03;;;13.84;100.00
54172;BME280;40076;52.354;4.970;2023-04-23T09:30:14;100506.59;;;13.89;100.00
54172;BME280;40076;52.354;4.970;2023-04-23T09:32:41;100511.53;;;14.00;100.00
54172;BME280;40076;52.354;4.970;2023-04-23T09:35:09;100507.88;;;14.08;100.00
54172;BME280;40076;52.354;4.970;2023-04-23T09:37:35;100508.47;;;14.17;100.00
54172;BME280;40076;52.354;4.970;2023-04-23T09:40:05;100509.00;;;14.22;100.00
54172;BME280;40076;52.354;4.970;2023-04-23T09:42:34;100497.16;;;14.30;100.00
54172;BME280;40076;52.354;4.970;2023-04-23T09:45:03;100494.56;;;14.34;100.00
54172;BME280;40076;52.354;4.970;2023-04-23T09:47:33;100502.91;;;14.41;100.00
54172;BME280;40076;52.354;4.970;2023-04-23T09:49:59;100497.25;;;14.50;100.00
54172;BME280;40076;52.354;4.970;2023-04-23T09:52:25;100497.00;;;14.55;100.00
54172;BME280;40076;52.354;4.970;2023-04-23T09:54:51;100497.16;;;14.62;100.00
54172;BME280;40076;52.354;4.970;2023-04-23T09:57:16;100494.25;;;14.71;100.00
54172;BME280;40076;52.354;4.970;2023-04-23T09:59:42;100493.28;;;14.79;100.00
54172;BME280;40076;52.354;4.970;2023-04-23T10:02:09;100498.44;;;14.84;100.00
54172;BME280;40076;52.354;4.970;2023-04-23T10:04:36;100498.88;;;14.86;100.00
54172;BME280;40076;52.354;4.970;2023-04-23T10:07:03;100494.22;;;14.86;100.00
54172;BME280;40076;52.354;4.970;2023-04-23T10:09:30;100493.84;;;14.88;100.00
54172;BME280;40076;52.354;4.970;2023-04-23T10:11:57;100492.72;;;14.89;100.00
54172;BME280;40076;52.354;4.970;2023-04-23T10:14:25;100484.97;;;14.91;100.00
54172;BME280;40076;52.354;4.970;2023-04-23T10:16:56;100484.69;;;14.96;100.00
54172;BME280;40076;52.354;4.970;2023-04-23T10:19:23;100488.72;;;15.02;100.00
54172;BME280;40076;52.354;4.970;2023-04-23T10:21:54;100495.03;;;15.06;100.00
54172;BME280;40076;52.354;4.970;2023-04-23T10:24:22;100487.31;;;15.08;100.00
54172;BME280;40076;52.354;4.970;2023-04-23T10:26:50;100486.56;;;15.11;100.00
54172;BME280;40076;52.354;4.970;2023-04-23T10:29:20;100489.72;;;15.13;100.00
54172;BME280;40076;52.354;4.970;2023-04-23T10:31:51;100490.53;;;15.14;100.00
54172;BME280;40076;52.354;4.970;2023-04-23T10:34:17;100478.13;;;15.16;100.00
54172;BME280;40076;52.354;4.970;2023-04-23T10:36:43;100473.09;;;15.18;100.00
54172;BME280;40076;52.354;4.970;2023-04-23T10:39:08;100469.31;;;15.23;100.00
54172;BME280;40076;52.354;4.970;2023-04-23T10:41:38;100470.13;;;15.23;100.00
54172;BME280;40076;52.354;4.970;2023-04-23T10:44:05;100467.44;;;15.27;100.00
54172;BME280;40076;52.354;4.970;2023-04-23T10:46:32;100458.50;;;15.26;100.00
54172;BME280;40076;52.354;4.970;2023-04-23T10:49:07;100452.34;;;15.29;100.00
54172;BME280;40076;52.354;4.970;2023-04-23T10:51:33;100455.16;;;15.33;100.00
54172;BME280;40076;52.354;4.970;2023-04-23T10:54:01;100450.47;;;15.33;100.00
54172;BME280;40076;52.354;4.970;2023-04-23T10:56:27;100453.72;;;15.39;100.00
54172;BME280;40076;52.354;4.970;2023-04-23T10:58:52;100453.41;;;15.44;100.00
54172;BME280;40076;52.354;4.970;2023-04-23T11:01:18;100441.00;;;15.47;100.00
54172;BME280;40076;52.354;4.970;2023-04-23T11:03:44;100442.22;;;15.49;100.00
54172;BME280;40076;52.354;4.970;2023-04-23T11:06:13;100444.22;;;15.52;100.00
54172;BME280;40076;52.354;4.970;2023-04-23T11:08:51;100439.69;;;15.56;100.00
54172;BME280;40076;52.354;4.970;2023-04-23T11:11:37;100449.38;;;15.57;100.00
54172;BME280;40076;52.354;4.970;2023-04-23T11:14:09;100438.56;;;15.61;100.00
54172;BME280;40076;52.354;4.970;2023-04-23T11:16:35;100442.00;;;15.58;100.00
54172;BME280;40076;52.354;4.970;2023-04-23T11:19:08;100426.91;;;15.60;100.00
54172;BME280;40076;52.354;4.970;2023-04-23T11:22:04;100423.16;;;15.68;100.00
54172;BME280;40076;52.354;4.970;2023-04-23T11:24:39;100418.97;;;15.74;100.00
54172;BME280;40076;52.354;4.970;2023-04-23T11:27:14;100420.63;;;15.79;100.00
54172;BME280;40076;52.354;4.970;2023-04-23T11:29:42;100404.69;;;15.81;100.00
54172;BME280;40076;52.354;4.970;2023-04-23T11:32:09;100405.19;;;15.87;100.00
54172;BME280;40076;52.354;4.970;2023-04-23T11:34:45;100397.03;;;15.90;100.00
54172;BME280;40076;52.354;4.970;2023-04-23T11:37:11;100394.41;;;15.94;100.00
54172;BME280;40076;52.354;4.970;2023-04-23T11:39:38;100388.97;;;15.97;100.00
54172;BME280;40076;52.354;4.970;2023-04-23T11:42:12;100391.72;;;15.97;100.00
54172;BME280;40076;52.354;4.970;2023-04-23T11:44:38;100388.66;;;16.02;100.00
54172;BME280;40076;52.354;4.970;2023-04-23T11:47:06;100385.13;;;15.98;100.00
54172;BME280;40076;52.354;4.970;2023-04-23T11:49:31;100382.38;;;15.98;100.00
54172;BME280;40076;52.354;4.970;2023-04-23T11:51:58;100385.91;;;15.99;100.00
54172;BME280;40076;52.354;4.970;2023-04-23T11:54:26;100369.59;;;16.02;100.00
54172;BME280;40076;52.354;4.970;2023-04-23T11:56:52;100366.22;;;16.09;100.00
54172;BME280;40076;52.354;4.970;2023-04-23T11:59:18;100359.22;;;16.11;100.00
54172;BME280;40076;52.354;4.970;2023-04-23T12:01:46;100368.25;;;16.15;100.00
54172;BME280;40076;52.354;4.970;2023-04-23T12:04:18;100359.31;;;16.18;100.00
54172;BME280;40076;52.354;4.970;2023-04-23T12:06:44;100360.53;;;16.21;97.79
54172;BME280;40076;52.354;4.970;2023-04-23T12:09:11;100357.09;;;16.24;98.84
54172;BME280;40076;52.354;4.970;2023-04-23T12:11:38;100358.69;;;16.29;99.38
54172;BME280;40076;52.354;4.970;2023-04-23T12:14:03;100349.00;;;16.31;99.16
54172;BME280;40076;52.354;4.970;2023-04-23T12:16:42;100343.94;;;16.33;98.49
54172;BME280;40076;52.354;4.970;2023-04-23T12:21:49;100346.28;;;16.31;96.81
54172;BME280;40076;52.354;4.970;2023-04-23T12:24:14;100339.25;;;16.30;95.71
54172;BME280;40076;52.354;4.970;2023-04-23T12:26:40;100338.47;;;16.30;95.32
54172;BME280;40076;52.354;4.970;2023-04-23T12:29:06;100335.31;;;16.28;95.89
54172;BME280;40076;52.354;4.970;2023-04-23T12:31:32;100339.63;;;16.29;96.15
54172;BME280;40076;52.354;4.970;2023-04-23T12:34:05;100329.50;;;16.29;97.49
54172;BME280;40076;52.354;4.970;2023-04-23T12:36:31;100319.41;;;16.33;97.39
54172;BME280;40076;52.354;4.970;2023-04-23T12:39:26;100317.16;;;16.39;97.94
54172;BME280;40076;52.354;4.970;2023-04-23T12:41:58;100319.97;;;16.46;98.43
54172;BME280;40076;52.354;4.970;2023-04-23T12:44:25;100310.31;;;16.52;97.62